Flight Track Log - Related Links

Times and Time Zones

All times are in EST time to prevent confusion due to time zone crossing. See the UPS35 flight status page for this flight to view local times or setup timezone preferences in your user account.

Time Position Orientation Groundspeed Altitude Reporting Facility
EST Latitude Longitude Course Direction KTS MPH feet Rate Location/Type
Fri 03:30:32 AM -33.9608 151.1797 341° North 78 90  Level FlightAware ADS-B (KCLL)
Fri 03:30:51 AM -33.9500 151.1769 348° North 152 175 100 1,588 Climbing FlightAware ADS-B (YSSY / SYD)
Fri 03:31:06 AM -33.9383 151.1738 347° North 164 189 900 3,188 Climbing FlightAware ADS-B
Fri 03:31:23 AM -33.9262 151.1695 344° North 158 182 1,800 2,870 Climbing FlightAware ADS-B
Fri 03:31:29 AM -33.9228 151.1673 332° Northwest 162 186 2,000 1,429 Climbing FlightAware ADS-B
Fri 03:31:44 AM -33.9145 151.1540 307° West 195 224 2,300 2,000 Climbing FlightAware ADS-B
Fri 03:31:53 AM -33.9143 151.1535 291° West 194 223 2,800 2,880 Climbing FlightAware ADS-B (YPLB)
Fri 03:32:09 AM -33.9037 151.1304 299° West 195 224 3,500 1,742 Climbing FlightAware ADS-B (YSSY / SYD)
Fri 03:32:24 AM -33.8960 151.1162 303° West 233 268 3,700 1,161 Climbing FlightAware ADS-B (KCLL)
Fri 03:32:40 AM -33.8856 151.0970 303° West 263 303 4,100 2,571 Climbing FlightAware ADS-B
Fri 03:32:52 AM -33.8758 151.0788 303° West 264 304 4,900 3,882 Climbing FlightAware ADS-B (YPLB)
Fri 03:33:14 AM -33.8630 151.0551 303° West 269 310 6,300 4,200 Climbing FlightAware ADS-B (YSSY / SYD)
Fri 03:33:32 AM -33.8504 151.0321 303° West 263 303 7,700 4,167 Climbing FlightAware ADS-B
Fri 03:33:50 AM -33.8388 151.0103 303° West 269 310 8,800 3,643 Climbing FlightAware ADS-B (YSSY / SYD)
Fri 03:34:00 AM -33.8345 151.0018 301° West 273 314 9,400 4,000 Climbing FlightAware ADS-B
Fri 03:34:14 AM -33.8272 150.9771 290° West 278 320 10,400 3,273 Climbing FlightAware ADS-B
Fri 03:34:33 AM -33.8213 150.9434 282° West 299 344 11,200 2,143 Climbing FlightAware ADS-B (YPLB)
Fri 03:34:42 AM -33.8200 150.9333 279° West 308 354 11,400 2,100 Climbing FlightAware ADS-B (KCLL)
Fri 03:34:53 AM -33.8169 150.9082 279° West 329 379 11,900 2,118 Climbing FlightAware ADS-B (YPLB)
Fri 03:34:59 AM -33.8162 150.9030 279° West 332 382 12,000 1,915 Climbing FlightAware ADS-B (KCLL)
Fri 03:35:40 AM -33.8036 150.8229 281° West 382 440 13,400 2,104 Climbing FlightAware ADS-B
Fri 03:36:16 AM -33.7893 150.7424 282° West 420 483 14,700 2,712 Climbing FlightAware ADS-B
Fri 03:36:53 AM -33.7743 150.6581 282° West 433 498 16,700 3,209 Climbing FlightAware ADS-B
Fri 03:36:59 AM -33.7717 150.6436 282° West 434 499 17,000 3,529 Climbing FlightAware ADS-B (KCLL)
Fri 03:37:44 AM -33.7527 150.5354 282° West 441 507 19,700 3,120 Climbing FlightAware ADS-B
Fri 03:38:14 AM -33.7374 150.4568 283° West 459 528 20,900 2,464 Climbing FlightAware ADS-B (YPLB)
Fri 03:38:40 AM -33.7164 150.4033 295° West 466 536 22,000 2,464 Climbing FlightAware ADS-B
Fri 03:39:10 AM -33.6853 150.3368 299° West 474 545 23,200 2,600 Climbing FlightAware ADS-B
Fri 03:39:40 AM -33.6526 150.2654 299° West 478 550 24,600 2,476 Climbing FlightAware ADS-B
Fri 03:40:13 AM -33.6194 150.1903 298° West 485 558 25,800 2,636 Climbing FlightAware ADS-B
Fri 03:40:46 AM -33.5831 150.1089 298° West 481 554 27,500 2,571 Climbing FlightAware ADS-B
Fri 03:41:16 AM -33.5512 150.0380 298° West 482 555 28,500 2,250 Climbing FlightAware ADS-B
Fri 03:41:50 AM -33.5168 149.9604 298° West 464 534 29,900 2,769 Climbing Aus ATC (RADAR)
Fri 03:41:55 AM -33.5072 149.9401 298° West 478 550 30,300 2,651 Climbing FlightAware ADS-B (YPLB)
Fri 03:42:33 AM -33.4688 149.8545 298° West 471 542 31,800 2,300 Climbing FlightAware ADS-B (YPLB)
Fri 03:42:55 AM -33.4453 149.8025 298° West 468 539 32,600 1,869 Climbing FlightAware ADS-B (YPLB)
Fri 03:43:34 AM -33.4063 149.7161 298° West 467 537 33,700 1,615 Climbing FlightAware ADS-B (YPLB)
Fri 03:44:13 AM -33.3689 149.6333 298° West 466 536 34,700 1,400 Climbing FlightAware ADS-B (YPLB)
Fri 03:45:04 AM -33.3223 149.5306 298° West 463 533 35,800 1,269 Climbing FlightAware ADS-B (YPLB)
Fri 03:45:05 AM -33.3170 149.5176 298° West 451 519 35,800 182 Level Aus ATC (RADAR)
Fri 03:46:10 AM -33.2506 149.3728 298° West 451 519 36,000 141 Climbing Aus ATC (RADAR)
Fri 03:46:30 AM -33.2299 149.3283 299° West 452 520 36,000  Level Aus ATC (RADAR)
Fri 03:46:32 AM -33.2264 149.3213 299° West 457 526 36,000  Level FlightAware ADS-B (KCLL)
Fri 03:47:05 AM -33.1942 149.2504 299° West 452 520 36,000  Level Aus ATC (RADAR)
Fri 03:47:29 AM -33.1685 149.1946 299° West 457 526 36,000  Level FlightAware ADS-B (KCLL)
Fri 03:48:14 AM -33.1233 149.0950 299° West 451 519 36,000  Level Aus ATC (RADAR)
Fri 03:48:21 AM -33.1157 149.0795 299° West 455 524 36,000  Level FlightAware ADS-B (KCLL)
Fri 03:49:08 AM -33.0680 148.9769 299° West 455 524 36,000 -72 Level FlightAware ADS-B (KCLL)
Fri 03:49:44 AM -33.0311 148.8971 299° West 448 516 35,900  Descending Aus ATC (RADAR)
Fri 03:50:00 AM -33.0143 148.8605 299° West 454 522 36,000  Climbing FlightAware ADS-B (KCLL)
Fri 03:51:14 AM -32.9394 148.6994 299° West 448 516 35,900  Descending Aus ATC (RADAR)
Fri 03:51:33 AM -32.9207 148.6590 299° West 454 522 36,000 76 Climbing FlightAware ADS-B (KCLL)
Fri 03:52:33 AM -32.8579 148.5243 299° West 451 519 36,000  Level FlightAware ADS-B (KCLL)
Fri 03:53:14 AM -32.8168 148.4376 299° West 447 514 36,000  Level Aus ATC (RADAR)
Fri 03:53:59 AM -32.7711 148.3397 299° West 445 512 36,000  Level Aus ATC (RADAR)
Fri 03:54:16 AM -32.7529 148.3013 299° West 450 518 36,000  Level FlightAware ADS-B (KCLL)
Fri 03:55:04 AM -32.7047 148.1988 299° West 446 513 36,000 -68 Level Aus ATC (RADAR)
Fri 03:55:44 AM -32.6639 148.1126 299° West 445 512 35,900 -81 Descending Aus ATC (RADAR)
Fri 03:56:18 AM -32.6280 148.0373 299° West 445 512 35,900 71 Level Aus ATC (RADAR)
Fri 03:57:09 AM -32.5769 147.9295 299° West 445 512 36,000 59 Climbing Aus ATC (RADAR)
Fri 03:57:59 AM -32.5254 147.8220 300° West 445 512 36,000  Level Aus ATC (RADAR)
Fri 03:58:33 AM -32.4900 147.7466 299° West 444 511 36,000  Level Aus ATC (RADAR)
Fri 03:59:03 AM -32.4591 147.6824 300° West 445 512 36,000  Level Aus ATC (RADAR)
Fri 03:59:38 AM -32.4229 147.6075 300° West 445 512 36,000  Level Aus ATC (RADAR)
Fri 04:00:34 AM -32.3665 147.4896 300° West 445 512 36,000  Level Aus ATC (RADAR)
Fri 04:01:13 AM -32.3254 147.4040 300° West 445 512 36,000  Level Aus ATC (RADAR)
Fri 04:01:58 AM -32.2792 147.3081 300° West 444 511 36,000  Level Aus ATC (RADAR)
Fri 04:02:38 AM -32.2383 147.2229 300° West 444 511 36,000 -67 Level Aus ATC (RADAR)
Fri 04:03:28 AM -32.1862 147.1173 300° West 443 510 35,900 -86 Descending Aus ATC (RADAR)
Fri 04:03:48 AM -32.1658 147.0748 300° West 444 511 35,900  Level Aus ATC (RADAR)
Fri 04:04:23 AM -32.1300 147.0004 300° West 444 511 35,900  Level Aus ATC (RADAR)
Fri 04:05:18 AM -32.0726 146.8844 300° West 444 511 35,900  Level Aus ATC (RADAR)
Fri 04:05:53 AM -32.0363 146.8109 300° West 443 510 35,900  Level Aus ATC (RADAR)
Fri 04:06:48 AM -31.9794 146.6939 300° West 443 510 35,900  Level Aus ATC (RADAR)
Fri 04:07:23 AM -31.9431 146.6201 300° West 443 510 35,900  Level Aus ATC (RADAR)
Fri 04:07:48 AM -31.9176 146.5681 300° West 441 507 35,900 71 Level Aus ATC (RADAR)
Fri 04:08:48 AM -31.8550 146.4417 300° West 429 494 36,000  Climbing Aus ATC (RADAR)
Fri 04:09:12 AM -31.8276 146.3913 303° West 439 505 35,900 19 Descending Aus ATC (RADAR)
Fri 04:13:27 AM -31.5627 145.8606 303° West 36,000 20 Climbing Aus ATC (Calculated)
Fri 04:15:00 AM -31.4599 145.6647 302° West  Level Estimated
Fri 04:16:00 AM -31.3935 145.5385 302° West  Level Estimated
Fri 04:17:00 AM -31.3269 145.4124 302° West  Level Estimated
Fri 04:18:00 AM -31.2601 145.2866 302° West  Level Estimated
Fri 04:18:27 AM -31.2310 145.2060 304° West 36,000  Level Aus ATC (Calculated)
Fri 04:20:00 AM -31.1271 145.0115 302° West  Level Estimated
Fri 04:21:00 AM -31.0600 144.8862 302° West  Level Estimated
Fri 04:22:00 AM -30.9928 144.7611 302° West  Level Estimated
Fri 04:23:00 AM -30.9254 144.6362 302° West  Level Estimated
Fri 04:23:26 AM -30.9023 144.5684 304° West 36,000  Level Aus ATC (Calculated)
Fri 04:25:00 AM -30.7964 144.3732 302° West  Level Estimated
Fri 04:26:00 AM -30.7286 144.2488 302° West  Level Estimated
Fri 04:27:00 AM -30.6608 144.1246 302° West  Level Estimated
Fri 04:28:00 AM -30.5928 144.0006 302° West  Level Estimated
Fri 04:28:25 AM -30.5914 143.9746 305° West 36,000  Level Aus ATC (Calculated)
Fri 04:30:00 AM -30.4834 143.7787 303° West  Level Estimated
Fri 04:31:00 AM -30.4151 143.6551 303° West  Level Estimated
Fri 04:31:36 AM -30.3761 143.5686 305° West 36,000  Level Aus ATC (Calculated)
Fri 04:33:00 AM -30.2801 143.3961 303° West  Level Estimated
Fri 04:34:00 AM -30.2114 143.2731 303° West  Level Estimated
Fri 04:35:00 AM -30.1425 143.1502 303° West  Level Estimated
Fri 04:36:00 AM -30.0736 143.0276 303° West  Level Estimated
Fri 04:36:33 AM -30.0480 142.9578 306° West 36,000  Level Aus ATC (Calculated)
Fri 04:38:00 AM -29.9477 142.7804 303° West  Level Estimated
Fri 04:38:30 AM -29.9355 142.7505 306° West 36,000  Level Aus ATC (Calculated)
Fri 04:40:00 AM -29.8315 142.5674 303° West  Level Estimated
Fri 04:40:33 AM -29.7978 142.5299 306° West 36,000  Level Aus ATC (Calculated)
Fri 04:41:00 AM -29.7620 142.4456 303° West  Level Estimated
Fri 04:42:00 AM -29.6969 142.3533 303° West  Level Estimated
Fri 04:43:00 AM -29.6272 142.2318 303° West  Level Estimated
Fri 04:43:38 AM -29.5781 142.1806 306° West 36,000  Level Aus ATC (Calculated)
Fri 04:45:00 AM -29.4827 142.0149 303° West  Level Estimated
Fri 04:46:00 AM -29.4127 141.8938 304° West  Level Estimated
Fri 04:47:00 AM -29.3426 141.7728 304° West  Level Estimated
Fri 04:48:00 AM -29.2724 141.6521 304° West  Level Estimated
Fri 04:48:29 AM -29.2117 141.6044 306° West 36,000  Level Aus ATC (Calculated)
Fri 04:49:00 AM -29.2022 141.5315 304° West  Level Estimated
Fri 04:50:00 AM -29.1050 141.4217 304° West  Level Estimated
Fri 04:51:00 AM -29.0346 141.3014 304° West  Level Estimated
Fri 04:52:00 AM -28.9640 141.1813 304° West  Level Estimated
Fri 04:53:00 AM -28.8934 141.0613 304° West  Level Estimated
Fri 04:53:28 AM -28.8241 141.0036 307° West 36,000  Level Aus ATC (Calculated)
Fri 04:55:00 AM -28.7155 140.8201 304° West  Level Estimated
Fri 04:56:00 AM -28.6446 140.7006 304° West  Level Estimated
Fri 04:57:00 AM -28.5736 140.5813 304° West  Level Estimated
Fri 04:58:00 AM -28.5024 140.4622 304° West  Level Estimated
Fri 04:58:28 AM -28.4127 140.3751 307° West 36,000  Level Aus ATC (Calculated)
Fri 05:00:00 AM -28.3034 140.1929 304° West  Level Estimated
Fri 05:01:00 AM -28.2320 140.0743 304° West  Level Estimated
Fri 05:02:00 AM -28.1604 139.9558 304° West  Level Estimated
Fri 05:03:00 AM -28.0888 139.8375 304° West  Level Estimated
Fri 05:03:27 AM -27.9966 139.7486 307° West 36,000  Level Aus ATC (Calculated)
Fri 05:05:00 AM -27.8853 139.5658 305° West  Level Estimated
Fri 05:06:00 AM -27.8134 139.4480 305° West  Level Estimated
Fri 05:07:00 AM -27.7414 139.3303 305° West  Level Estimated
Fri 05:08:00 AM -27.6693 139.2129 305° West  Level Estimated
Fri 05:08:27 AM -27.5951 139.1528 307° West 36,000  Level Aus ATC (Calculated)
Fri 05:10:00 AM -27.4832 138.9711 305° West  Level Estimated
Fri 05:11:00 AM -27.4108 138.8541 305° West  Level Estimated
Fri 05:12:00 AM -27.3384 138.7373 305° West  Level Estimated
Fri 05:13:00 AM -27.2658 138.6206 305° West  Level Estimated
Fri 05:13:26 AM -27.2164 138.5981 308° West 36,000  Level Aus ATC (Calculated)
Fri 05:15:00 AM -27.1026 138.4156 305° West  Level Estimated
Fri 05:15:00 AM -27.0685 138.3834 308° West 36,000  Level Aus ATC (Calculated)
Fri 05:16:00 AM -26.9958 138.2672 305° West  Level Estimated
Fri 05:17:00 AM -26.9229 138.1511 305° West  Level Estimated
Fri 05:17:11 AM -26.9203 138.1693 308° West 36,000  Level Aus ATC (Calculated)
Fri 05:17:41 AM -26.8570 138.0782 308° West 36,000 52 Level Aus ATC (Calculated)
Fri 05:19:00 AM -26.7609 137.9257 305° West  Level Estimated
Fri 05:19:00 AM -26.7619 137.9419 308° West 36,000  Level Aus ATC (Calculated)
Fri 05:20:00 AM -26.6888 137.8262 305° West  Level Estimated
Fri 05:21:00 AM -26.6156 137.7107 305° West  Level Estimated
Fri 05:22:00 AM -26.5424 137.5953 305° West  Level Estimated
Fri 05:22:36 AM -26.4757 137.5343 308° West 36,000  Level Aus ATC (Calculated)
Fri 05:23:00 AM -26.4690 137.4801 305° West  Level Estimated
Fri 05:24:00 AM -26.3730 137.3731 305° West  Level Estimated
Fri 05:24:49 AM -26.3163 137.3087 308° West 36,000  Level Aus ATC (Calculated)
Fri 05:25:00 AM -26.2995 137.2581 305° West  Level Estimated
Fri 05:26:00 AM -26.2293 137.1727 305° West  Level Estimated
Fri 05:27:00 AM -26.1556 137.0580 306° West  Level Estimated
Fri 05:27:36 AM -26.0924 136.9939 308° West 36,000  Level Aus ATC (Calculated)
Fri 05:28:00 AM -26.0819 136.9435 306° West  Level Estimated
Fri 05:29:00 AM -25.9892 136.8336 306° West  Level Estimated
Fri 05:30:00 AM -25.9153 136.7193 306° West  Level Estimated
Fri 05:31:00 AM -25.8414 136.6052 306° West  Level Estimated
Fri 05:31:10 AM -25.8025 136.5894 309° West 38,000  Level Aus ATC (Calculated)
Fri 05:31:54 AM -25.7699 136.5442 309° West 38,000  Level Aus ATC (Calculated)
Fri 05:33:00 AM -25.6885 136.4189 306° West  Level Estimated
Fri 05:34:00 AM -25.6144 136.3051 306° West  Level Estimated
Fri 05:34:34 AM -25.5744 136.2738 309° West 38,000  Level Aus ATC (Calculated)
Fri 05:35:00 AM -25.5402 136.1915 306° West  Level Estimated
Fri 05:36:00 AM -25.4680 136.1110 306° West  Level Estimated
Fri 05:37:00 AM -25.3937 135.9976 306° West  Level Estimated
Fri 05:38:00 AM -25.3193 135.8843 306° West  Level Estimated
Fri 05:39:00 AM -25.2448 135.7712 306° West  Level Estimated
Fri 05:39:29 AM -25.1818 135.7355 309° West 38,000  Level Aus ATC (Calculated)
Fri 05:41:00 AM -25.0687 135.5643 306° West  Level Estimated
Fri 05:42:00 AM -24.9940 135.4515 306° West  Level Estimated
Fri 05:43:00 AM -24.9193 135.3389 306° West  Level Estimated
Fri 05:44:00 AM -24.8444 135.2264 306° West  Level Estimated
Fri 05:44:28 AM -24.8203 135.2452 309° West 38,000  Level Aus ATC (Calculated)
Fri 05:46:00 AM -24.7055 135.0729 306° West  Level Estimated
Fri 05:47:00 AM -24.6305 134.9607 306° West  Level Estimated
Fri 05:48:00 AM -24.5554 134.8486 306° West  Level Estimated
Fri 05:49:00 AM -24.4802 134.7367 306° West  Level Estimated
Fri 05:49:28 AM -24.4240 134.7134 309° West 38,000  Level Aus ATC (Calculated)
Fri 05:50:00 AM -24.4050 134.6250 306° West  Level Estimated
Fri 05:51:00 AM -24.3087 134.5421 306° West  Level Estimated
Fri 05:52:00 AM -24.2334 134.4305 306° West  Level Estimated
Fri 05:53:00 AM -24.1580 134.3191 307° West  Level Estimated
Fri 05:54:00 AM -24.0825 134.2078 307° West  Level Estimated
Fri 05:54:27 AM -24.0591 134.2289 310° West 38,000  Level Aus ATC (Calculated)
Fri 05:54:58 AM -24.0258 134.1850 130° Southeast 38,000  Level Aus ATC (Calculated)
Fri 05:55:30 AM -24.0418 134.2060 307° West 439 505 38,000  Level FlightAware ADS-B
Fri 05:56:10 AM -23.9913 134.1395 310° West 438 504 38,000  Level FlightAware ADS-B
Fri 05:56:50 AM -23.9353 134.0653 310° West 441 507 38,000  Level FlightAware ADS-B
Fri 05:57:31 AM -23.8869 134.0016 310° West 441 507 38,000  Level FlightAware ADS-B
Fri 05:58:10 AM -23.8310 133.9283 310° West 442 509 38,000  Level FlightAware ADS-B
Fri 05:58:42 AM -23.7244 133.7937 132° Southeast 38,000  Level Aus ATC (Calculated)
Fri 05:58:50 AM -23.7812 133.8629 310° West 444 511 38,000  Level FlightAware ADS-B
Fri 05:59:31 AM -23.7258 133.7944 310° West 446 513 38,000  Level FlightAware ADS-B
Fri 06:00:10 AM -23.6695 133.7253 312° West 448 516 38,000  Level FlightAware ADS-B
Fri 06:00:51 AM -23.6151 133.6583 312° West 448 516 38,000 76 Level FlightAware ADS-B
Fri 06:01:29 AM -23.5741 133.6078 312° West 449 517 38,100 75 Climbing FlightAware ADS-B
Fri 06:02:11 AM -23.5041 133.5217 312° West 447 514 38,100  Level FlightAware ADS-B
Fri 06:02:44 AM -23.4580 133.4650 312° West 446 513 38,100 -76 Level FlightAware ADS-B
Fri 06:03:30 AM -23.3957 133.3885 312° West 443 510 38,000 -70 Descending FlightAware ADS-B
Fri 06:03:37 AM -23.3138 133.2883 132° Southeast 38,000  Level Aus ATC (Calculated)
Fri 06:04:10 AM -23.3416 133.3221 312° West 441 507 38,000  Level FlightAware ADS-B
Fri 06:04:51 AM -23.2874 133.2557 312° West 439 505 38,000  Level FlightAware ADS-B
Fri 06:05:31 AM -23.2324 133.1884 312° West 441 507 38,000  Level FlightAware ADS-B
Fri 06:06:11 AM -23.1791 133.1231 312° West 444 511 38,000  Level FlightAware ADS-B
Fri 06:06:51 AM -23.1242 133.0565 312° West 446 513 38,000 75 Level FlightAware ADS-B
Fri 06:07:31 AM -23.0683 132.9884 312° West 448 516 38,100 75 Climbing FlightAware ADS-B
Fri 06:08:11 AM -23.0156 132.9243 312° West 448 516 38,100  Level FlightAware ADS-B
Fri 06:08:36 AM -22.9016 132.7860 132° Southeast 38,000  Descending Aus ATC (Calculated)
Fri 06:08:51 AM -22.9588 132.8551 312° West 448 516 38,100  Climbing FlightAware ADS-B
Fri 06:09:03 AM -22.8671 132.7443 132° Southeast 38,000 -150 Descending Aus ATC (Calculated)
Fri 06:09:31 AM -22.9039 132.7887 312° West 448 516 38,000  Level FlightAware ADS-B
Fri 06:10:06 AM -22.7638 132.6192 132° Southeast 38,000  Level Aus ATC (Calculated)
Fri 06:10:11 AM -22.8478 132.7204 312° West 448 516 38,000  Level FlightAware ADS-B
Fri 06:10:51 AM -22.7923 132.6535 312° West 448 516 38,000  Level FlightAware ADS-B
Fri 06:11:31 AM -22.7375 132.5871 312° West 449 517 38,000  Level FlightAware ADS-B
Fri 06:12:11 AM -22.6832 132.5215 312° West 448 516 38,000  Level FlightAware ADS-B
Fri 06:12:51 AM -22.6272 132.4544 312° West 448 516 38,000  Level FlightAware ADS-B
Fri 06:13:31 AM -22.5712 132.3869 312° West 448 516 38,000  Level FlightAware ADS-B
Fri 06:13:36 AM -22.4877 132.2867 132° Southeast 38,000  Level Aus ATC (Calculated)
Fri 06:14:11 AM -22.5152 132.3194 312° West 449 517 38,000  Level FlightAware ADS-B
Fri 06:14:51 AM -22.4600 132.2530 312° West 450 518 38,000  Level FlightAware ADS-B
Fri 06:15:31 AM -22.4046 132.1868 312° West 450 518 38,000  Level FlightAware ADS-B
Fri 06:16:11 AM -22.3481 132.1191 312° West 450 518 38,000  Level FlightAware ADS-B
Fri 06:16:51 AM -22.2930 132.0532 312° West 450 518 38,000  Level FlightAware ADS-B
Fri 06:17:31 AM -22.2411 131.9912 312° West 451 519 38,000  Level FlightAware ADS-B
Fri 06:18:36 AM -22.0376 131.7491 312° West 38,000  Level Aus ATC (Calculated)
Fri 06:20:00 AM -21.9184 131.6077 312° West  Level FlightAware Approximate
Fri 06:21:00 AM -21.8332 131.5069 312° West  Level FlightAware Approximate
Fri 06:22:00 AM -21.7480 131.4061 312° West  Level FlightAware Approximate
Fri 06:22:03 AM -21.7597 131.4200 312° West 38,000  Level Aus ATC (Calculated)
Fri 06:24:00 AM -21.5933 131.2238 312° West  Level FlightAware Approximate
Fri 06:25:00 AM -21.5079 131.1234 312° West  Level FlightAware Approximate
Fri 06:25:13 AM -21.4825 131.0938 133° Southeast 38,000  Level Aus ATC (Calculated)
Fri 06:27:00 AM -21.5482 131.1709 312° West  Level FlightAware Approximate
Fri 06:28:00 AM -21.4627 131.0706 312° West  Level FlightAware Approximate
Fri 06:29:00 AM -21.3771 130.9704 313° West  Level FlightAware Approximate
Fri 06:30:00 AM -21.2915 130.8704 313° West  Level FlightAware Approximate
Fri 06:30:08 AM -21.0689 130.6111 313° West 38,000  Level Aus ATC (Calculated)
Fri 06:32:00 AM -20.9086 130.4252 313° West  Level FlightAware Approximate
Fri 06:33:00 AM -20.8227 130.3258 313° West  Level FlightAware Approximate
Fri 06:34:00 AM -20.7367 130.2265 313° West  Level FlightAware Approximate
Fri 06:35:00 AM -20.6507 130.1273 313° West  Level FlightAware Approximate
Fri 06:35:07 AM -20.6019 130.0712 313° West 38,000  Level Aus ATC (Calculated)
Fri 06:37:00 AM -20.4397 129.8848 313° West  Level FlightAware Approximate
Fri 06:38:00 AM -20.3534 129.7860 313° West  Level FlightAware Approximate
Fri 06:39:00 AM -20.2671 129.6873 313° West  Level FlightAware Approximate
Fri 06:40:00 AM -20.1807 129.5887 313° West  Level FlightAware Approximate
Fri 06:40:07 AM -20.1854 129.5941 313° West 38,000  Level Aus ATC (Calculated)
Fri 06:42:00 AM -20.0226 129.4087 313° West  Level FlightAware Approximate
Fri 06:43:00 AM -19.9361 129.3104 313° West  Level FlightAware Approximate
Fri 06:44:00 AM -19.8496 129.2123 313° West  Level FlightAware Approximate
Fri 06:45:00 AM -19.7630 129.1142 313° West  Level FlightAware Approximate
Fri 06:45:06 AM -19.7153 129.0603 313° West 38,000  Level Aus ATC (Calculated)
Fri 06:47:00 AM -19.5505 128.8744 313° West  Level FlightAware Approximate
Fri 06:48:00 AM -19.4637 128.7767 313° West  Level FlightAware Approximate
Fri 06:49:00 AM -19.3769 128.6791 313° West  Level FlightAware Approximate
Fri 06:50:00 AM -19.2899 128.5816 313° West  Level FlightAware Approximate
Fri 06:50:06 AM -19.2961 128.5885 313° West 38,000  Level Aus ATC (Calculated)
Fri 06:52:00 AM -19.1308 128.4035 313° West  Level FlightAware Approximate
Fri 06:53:00 AM -19.0438 128.3063 313° West  Level FlightAware Approximate
Fri 06:53:16 AM -19.0334 128.2948 313° West 38,000  Level Aus ATC (Calculated)
Fri 06:55:00 AM -18.8824 128.1265 313° West  Level FlightAware Approximate
Fri 06:56:00 AM -18.7952 128.0296 314° West  Level FlightAware Approximate
Fri 06:57:00 AM -18.7079 127.9328 314° West  Level FlightAware Approximate
Fri 06:58:00 AM -18.6206 127.8361 314° West  Level FlightAware Approximate
Fri 06:58:15 AM -18.5594 127.7684 314° West 38,000  Level Aus ATC (Calculated)
Fri 07:00:00 AM -18.4065 127.5995 314° West  Level FlightAware Approximate
Fri 07:01:00 AM -18.3190 127.5032 314° West  Level FlightAware Approximate
Fri 07:02:00 AM -18.2315 127.4069 314° West  Level FlightAware Approximate
Fri 07:03:00 AM -18.3191 127.5031 134° Southeast  Level FlightAware Approximate
Fri 07:03:40 AM -18.0749 127.2350 134° Southeast 40,000  Level Aus ATC (Calculated)
Fri 07:05:00 AM -18.1917 127.3631 134° Southeast  Level FlightAware Approximate
Fri 07:06:00 AM -18.2792 127.4593 134° Southeast  Level FlightAware Approximate
Fri 07:07:00 AM -18.2380 127.4140 314° West  Level FlightAware Approximate
Fri 07:08:00 AM -18.1504 127.3178 314° West  Level FlightAware Approximate
Fri 07:08:39 AM -17.6266 126.7457 134° Southeast 40,000  Level Aus ATC (Calculated)
Fri 07:09:00 AM -18.0628 127.2218 314° West  Level FlightAware Approximate
Fri 07:10:00 AM -17.5080 126.6168 314° West  Level FlightAware Approximate
Fri 07:11:00 AM -17.4200 126.5214 314° West  Level FlightAware Approximate
Fri 07:12:00 AM -17.3320 126.4261 314° West  Level FlightAware Approximate
Fri 07:13:00 AM -17.2439 126.3309 314° West  Level FlightAware Approximate
Fri 07:13:34 AM -17.1772 126.2589 314° West 40,000  Level Aus ATC (Calculated)
Fri 07:14:00 AM -17.1558 126.2358 314° West  Level FlightAware Approximate
Fri 07:15:00 AM -17.0508 126.1227 314° West  Level FlightAware Approximate
Fri 07:16:00 AM -16.9627 126.0277 314° West  Level FlightAware Approximate
Fri 07:17:00 AM -16.8744 125.9329 314° West  Level FlightAware Approximate
Fri 07:18:00 AM -16.7861 125.8382 314° West  Level FlightAware Approximate
Fri 07:18:33 AM -16.7265 125.7743 314° West 40,000  Level Aus ATC (Calculated)
Fri 07:20:00 AM -16.5984 125.6372 314° West  Level FlightAware Approximate
Fri 07:21:00 AM -16.5100 125.5427 314° West  Level FlightAware Approximate
Fri 07:21:58 AM -16.4443 125.4726 314° West 40,000  Level Aus ATC (Calculated)
Fri 07:22:00 AM -16.4215 125.4484 314° West  Level FlightAware Approximate
Fri 07:23:00 AM -16.3135 125.4726 North  Level FlightAware Approximate
Fri 07:23:53 AM -16.2678 125.2847 134° Southeast 40,000  Level Aus ATC (Calculated)
Fri 07:24:00 AM -16.4401 125.4726 180° South  Level FlightAware Approximate
Fri 07:25:00 AM -16.3667 125.3900 134° Southeast  Level FlightAware Approximate
Fri 07:26:00 AM -16.4552 125.4843 134° Southeast  Level FlightAware Approximate
Fri 07:27:00 AM -16.4439 125.4722 314° West  Level FlightAware Approximate
Fri 07:28:00 AM -16.3554 125.3779 314° West  Level FlightAware Approximate
Fri 07:28:42 AM -15.8703 124.8632 135° Southeast 40,000  Level Aus ATC (Calculated)
Fri 07:29:00 AM -16.2668 125.2837 314° West  Level FlightAware Approximate
Fri 07:30:00 AM -15.7549 124.7413 315° West  Level FlightAware Approximate
Fri 07:31:00 AM -15.6660 124.6477 315° West  Level FlightAware Approximate
Fri 07:31:27 AM -15.6217 124.6010 135° Southeast 40,000  Level Aus ATC (Calculated)
Fri 07:33:00 AM -15.7594 124.7461 135° Southeast  Level FlightAware Approximate
Fri 07:34:00 AM -15.6706 124.6524 315° West  Level FlightAware Approximate
Fri 07:35:00 AM -15.7594 124.7461 135° Southeast  Level FlightAware Approximate
Fri 07:36:00 AM -15.6815 124.6425 315° West  Level Estimated
Fri 07:36:22 AM -15.1577 124.1141 315° West 40,000  Level Aus ATC (Calculated)
Fri 07:38:00 AM -15.0122 123.9620 315° West  Level FlightAware Approximate
Fri 07:39:00 AM -14.9231 123.8690 315° West  Level FlightAware Approximate
Fri 07:40:00 AM -14.8339 123.7761 315° West  Level FlightAware Approximate
Fri 07:41:00 AM -14.7447 123.6833 315° West  Level FlightAware Approximate
Fri 07:41:21 AM -14.6927 123.6293 315° West 40,000  Level Aus ATC (Calculated)
Fri 07:42:00 AM -14.6554 123.5906 315° West  Level FlightAware Approximate
Fri 07:43:00 AM -14.5454 123.4763 315° West  Level FlightAware Approximate
Fri 07:43:41 AM -14.4598 123.3876 315° West 40,000  Level Aus ATC (Calculated)
Fri 07:44:00 AM -14.4560 123.3838 315° West  Level FlightAware Approximate
Fri 07:45:00 AM -14.3421 123.2658 315° West  Level FlightAware Approximate
Fri 07:46:00 AM -14.2527 123.1734 315° West  Level FlightAware Approximate
Fri 07:46:21 AM -14.2267 123.1465 315° West 40,000  Level Aus ATC (Calculated)
Fri 07:47:00 AM -14.1633 123.0811 315° West  Level FlightAware Approximate
Fri 07:48:00 AM -14.0790 122.9942 315° West  Level FlightAware Approximate
Fri 07:49:00 AM -13.9895 122.9020 315° West  Level FlightAware Approximate
Fri 07:50:00 AM -13.8999 122.8099 315° West  Level FlightAware Approximate
Fri 07:51:00 AM -13.8104 122.7178 315° West  Level FlightAware Approximate
Fri 07:51:21 AM -13.7596 122.6657 315° West 40,000  Level Aus ATC (Calculated)
Fri 07:53:00 AM -13.6117 122.5141 315° West  Level FlightAware Approximate
Fri 07:53:20 AM -13.5842 122.4859 315° West 40,000  Level Aus ATC (Calculated)
Fri 07:54:50 AM -13.4087 122.3064 315° West 40,000  Level Aus ATC (Calculated)
Fri 07:55:50 AM -13.3502 122.2466 315° West 40,000  Level Aus ATC (Calculated)
Fri 07:56:00 AM -13.3040 122.1994 315° West  Level FlightAware Approximate
Fri 07:56:52 AM -13.2330 122.1271 135° Southeast 40,000  Level Aus ATC (Calculated)
Fri 07:57:00 AM -13.2454 122.1397 315° West  Level FlightAware Approximate
Fri 07:58:00 AM -13.1312 122.0234 315° West  Level FlightAware Approximate
Fri 07:59:00 AM -13.0414 121.9319 315° West  Level FlightAware Approximate
Fri 07:59:26 AM -12.9986 121.8884 315° West 40,000  Level Aus ATC (Calculated)
Fri 08:01:00 AM -12.8577 121.7453 315° West  Level FlightAware Approximate
Fri 08:02:00 AM -12.7678 121.6541 315° West  Level FlightAware Approximate
Fri 08:02:34 AM -12.7053 121.5908 360° North 40,000  Level Aus ATC (Calculated)
Fri 08:02:44 AM -12.7053 121.5908 315° West 40,000  Level Aus ATC (Calculated)
Fri 08:04:00 AM -12.5913 121.4753 315° West  Level FlightAware Approximate
Fri 08:05:00 AM -12.5012 121.3842 315° West  Level FlightAware Approximate
Fri 08:06:00 AM -12.4111 121.2932 315° West  Level FlightAware Approximate
Fri 08:06:47 AM -12.2941 121.1751 360° North 40,000  Level Aus ATC (Calculated)
Fri 08:06:56 AM -12.2941 121.1751 315° West 40,000  Level Aus ATC (Calculated)
Fri 08:08:00 AM -12.1979 121.0782 315° West  Level FlightAware Approximate
Fri 08:09:00 AM -12.1077 120.9874 315° West  Level FlightAware Approximate
Fri 08:10:00 AM -12.0175 120.8966 315° West  Level FlightAware Approximate
Fri 08:11:00 AM -11.9272 120.8060 315° West  Level FlightAware Approximate
Fri 08:12:00 AM -12.0175 120.8966 136° Southeast  Level FlightAware Approximate
Fri 08:13:00 AM -11.9272 120.8060 315° West  Level FlightAware Approximate
Fri 08:14:00 AM -12.0175 120.8966 136° Southeast  Level FlightAware Approximate
Fri 08:15:00 AM -11.9272 120.8060 315° West  Level FlightAware Approximate
Fri 08:16:00 AM -12.0175 120.8966 136° Southeast  Level FlightAware Approximate
Fri 08:17:00 AM -11.9272 120.8060 315° West  Level FlightAware Approximate
Fri 08:18:00 AM -12.0175 120.8966 136° Southeast  Level FlightAware Approximate
Fri 08:19:00 AM -11.9272 120.8060 315° West  Level FlightAware Approximate
Fri 08:20:00 AM -11.9743 120.8319 299° West  Level FlightAware Approximate
Fri 08:21:00 AM -11.9128 120.7188 299° West  Level FlightAware Approximate
Fri 08:22:00 AM -11.8513 120.6058 299° West  Level FlightAware Approximate
Fri 08:23:00 AM -11.7896 120.4929 299° West  Level FlightAware Approximate
Fri 08:24:00 AM -11.7280 120.3800 299° West  Level FlightAware Approximate
Fri 08:25:00 AM -11.6663 120.2672 299° West  Level FlightAware Approximate
Fri 08:26:00 AM -11.6046 120.1544 299° West  Level FlightAware Approximate
Fri 08:27:00 AM -11.5428 120.0416 299° West  Level FlightAware Approximate
Fri 08:28:00 AM -11.4809 119.9289 299° West  Level FlightAware Approximate
Fri 08:29:00 AM -11.4191 119.8163 299° West  Level FlightAware Approximate
Fri 08:30:00 AM -11.3571 119.7037 299° West  Level FlightAware Approximate
Fri 08:31:00 AM -11.2952 119.5912 299° West  Level FlightAware Approximate
Fri 08:32:00 AM -11.2332 119.4787 299° West  Level FlightAware Approximate
Fri 08:33:00 AM -11.1711 119.3662 299° West  Level FlightAware Approximate
Fri 08:34:00 AM -11.1090 119.2539 299° West  Level FlightAware Approximate
Fri 08:35:00 AM -11.0469 119.1415 299° West  Level FlightAware Approximate
Fri 08:36:00 AM -10.9847 119.0292 299° West  Level FlightAware Approximate
Fri 08:37:00 AM -10.9225 118.9169 299° West  Level FlightAware Approximate
Fri 08:38:00 AM -10.8603 118.8047 299° West  Level FlightAware Approximate
Fri 08:39:00 AM -10.7980 118.6926 299° West  Level FlightAware Approximate
Fri 08:40:00 AM -10.7357 118.5805 299° West  Level FlightAware Approximate
Fri 08:41:00 AM -10.6733 118.4684 300° West  Level FlightAware Approximate
Fri 08:42:00 AM -10.6109 118.3564 300° West  Level FlightAware Approximate
Fri 08:43:00 AM -10.5484 118.2444 300° West  Level FlightAware Approximate
Fri 08:44:00 AM -10.4860 118.1325 300° West  Level FlightAware Approximate
Fri 08:45:00 AM -10.4234 118.0206 300° West  Level FlightAware Approximate
Fri 08:46:00 AM -10.3609 117.9088 300° West  Level FlightAware Approximate
Fri 08:47:00 AM -10.2982 117.7970 300° West  Level FlightAware Approximate
Fri 08:48:00 AM -10.2356 117.6852 300° West  Level FlightAware Approximate
Fri 08:49:00 AM -10.1729 117.5735 300° West  Level FlightAware Approximate
Fri 08:50:00 AM -10.1102 117.4619 300° West  Level FlightAware Approximate
Fri 08:51:00 AM -10.0474 117.3503 300° West  Level FlightAware Approximate
Fri 08:52:00 AM -9.9828 117.2398 301° West  Level FlightAware Approximate
Fri 08:53:00 AM -9.9179 117.1295 301° West  Level FlightAware Approximate
Fri 08:54:00 AM -9.8530 117.0192 301° West  Level FlightAware Approximate
Fri 08:55:00 AM -9.7880 116.9090 301° West  Level FlightAware Approximate
Fri 08:56:00 AM -9.7229 116.7989 301° West  Level FlightAware Approximate
Fri 08:57:00 AM -9.6579 116.6887 301° West  Level FlightAware Approximate
Fri 08:58:00 AM -9.5928 116.5787 301° West  Level FlightAware Approximate
Fri 08:59:00 AM -9.5276 116.4686 301° West  Level FlightAware Approximate
Fri 09:00:00 AM -9.4625 116.3586 301° West  Level FlightAware Approximate
Fri 09:01:00 AM -9.3973 116.2487 301° West  Level FlightAware Approximate
Fri 09:02:00 AM -9.3321 116.1388 301° West  Level FlightAware Approximate
Fri 09:03:00 AM -9.2668 116.0289 301° West  Level FlightAware Approximate
Fri 09:04:00 AM -9.2015 115.9191 301° West  Level FlightAware Approximate
Fri 09:05:00 AM -9.1361 115.8093 301° West  Level FlightAware Approximate
Fri 09:06:00 AM -9.0708 115.6995 301° West  Level FlightAware Approximate
Fri 09:07:00 AM -9.0054 115.5898 301° West  Level FlightAware Approximate
Fri 09:08:00 AM -8.9399 115.4801 301° West  Level FlightAware Approximate
Fri 09:09:00 AM -8.8745 115.3705 301° West  Level FlightAware Approximate
Fri 09:10:00 AM -8.8090 115.2609 301° West  Level FlightAware Approximate
Fri 09:11:00 AM -8.7394 115.1552 324° Northwest  Level FlightAware Approximate
Fri 09:12:00 AM -8.6369 115.0801 324° Northwest  Level FlightAware Approximate
Fri 09:13:00 AM -8.5344 115.0050 324° Northwest  Level FlightAware Approximate
Fri 09:14:00 AM -8.4319 114.9300 324° Northwest  Level FlightAware Approximate
Fri 09:15:00 AM -8.3293 114.8551 324° Northwest  Level FlightAware Approximate
Fri 09:16:00 AM -8.2268 114.7802 324° Northwest  Level FlightAware Approximate
Fri 09:17:00 AM -8.1242 114.7053 324° Northwest  Level FlightAware Approximate
Fri 09:18:00 AM -8.0216 114.6304 324° Northwest  Level FlightAware Approximate
Fri 09:19:00 AM -7.9190 114.5556 324° Northwest  Level FlightAware Approximate
Fri 09:20:00 AM -7.8164 114.4809 324° Northwest  Level FlightAware Approximate
Fri 09:21:00 AM -7.7137 114.4061 324° Northwest  Level FlightAware Approximate
Fri 09:22:00 AM -7.6111 114.3315 324° Northwest  Level FlightAware Approximate
Fri 09:23:00 AM -7.5084 114.2568 324° Northwest  Level FlightAware Approximate
Fri 09:24:00 AM -7.4058 114.1822 324° Northwest  Level FlightAware Approximate
Fri 09:25:00 AM -7.3031 114.1076 324° Northwest  Level FlightAware Approximate
Fri 09:26:00 AM -7.2004 114.0330 324° Northwest  Level FlightAware Approximate
Fri 09:27:00 AM -7.0977 113.9585 324° Northwest  Level FlightAware Approximate
Fri 09:28:00 AM -6.9950 113.8840 324° Northwest  Level FlightAware Approximate
Fri 09:29:00 AM -6.8922 113.8097 324° Northwest  Level FlightAware Approximate
Fri 09:30:00 AM -6.7894 113.7353 324° Northwest  Level FlightAware Approximate
Fri 09:31:00 AM -6.6866 113.6610 324° Northwest  Level FlightAware Approximate
Fri 09:32:00 AM -6.5837 113.5867 324° Northwest  Level FlightAware Approximate
Fri 09:33:00 AM -6.4809 113.5125 324° Northwest  Level FlightAware Approximate
Fri 09:34:00 AM -6.3781 113.4383 324° Northwest  Level FlightAware Approximate
Fri 09:35:00 AM -6.2752 113.3641 324° Northwest  Level FlightAware Approximate
Fri 09:36:00 AM -6.1916 113.2698 308° West  Level FlightAware Approximate
Fri 09:37:00 AM -6.1143 113.1691 308° West  Level FlightAware Approximate
Fri 09:38:00 AM -6.0369 113.0684 308° West  Level FlightAware Approximate
Fri 09:39:00 AM -5.9595 112.9677 308° West  Level FlightAware Approximate
Fri 09:40:00 AM -5.8821 112.8671 308° West  Level FlightAware Approximate
Fri 09:41:00 AM -5.8046 112.7664 308° West  Level FlightAware Approximate
Fri 09:42:00 AM -5.7272 112.6658 308° West  Level FlightAware Approximate
Fri 09:43:00 AM -5.6497 112.5653 308° West  Level FlightAware Approximate
Fri 09:44:00 AM -5.5722 112.4648 308° West  Level FlightAware Approximate
Fri 09:45:00 AM -5.4947 112.3643 308° West  Level FlightAware Approximate
Fri 09:46:00 AM -5.4172 112.2638 308° West  Level FlightAware Approximate
Fri 09:47:00 AM -5.3396 112.1633 308° West  Level FlightAware Approximate
Fri 09:48:00 AM -5.2621 112.0629 308° West  Level FlightAware Approximate
Fri 09:49:00 AM -5.1845 111.9625 308° West  Level FlightAware Approximate
Fri 09:50:00 AM -5.1069 111.8621 308° West  Level FlightAware Approximate
Fri 09:51:00 AM -5.0293 111.7618 308° West  Level FlightAware Approximate
Fri 09:52:00 AM -4.9517 111.6614 308° West  Level FlightAware Approximate
Fri 09:53:00 AM -4.8740 111.5611 308° West  Level FlightAware Approximate
Fri 09:54:00 AM -4.7964 111.4608 308° West  Level FlightAware Approximate
Fri 09:55:00 AM -4.7187 111.3606 308° West  Level FlightAware Approximate
Fri 09:56:00 AM -4.6410 111.2603 308° West  Level FlightAware Approximate
Fri 09:57:00 AM -4.5635 111.1600 308° West  Level FlightAware Approximate
Fri 09:58:00 AM -4.4861 111.0595 308° West  Level FlightAware Approximate
Fri 09:59:00 AM -4.4087 110.9591 308° West  Level FlightAware Approximate
Fri 10:00:00 AM -4.3313 110.8587 308° West  Level FlightAware Approximate
Fri 10:01:00 AM -4.2538 110.7583 308° West  Level FlightAware Approximate
Fri 10:02:00 AM -4.1764 110.6580 308° West  Level FlightAware Approximate
Fri 10:03:00 AM -4.0989 110.5576 308° West  Level FlightAware Approximate
Fri 10:04:00 AM -4.0215 110.4573 308° West  Level FlightAware Approximate
Fri 10:05:00 AM -3.9427 110.3581 311° West  Level FlightAware Approximate
Fri 10:06:00 AM -3.8601 110.2619 311° West  Level FlightAware Approximate
Fri 10:07:00 AM -3.7776 110.1657 311° West  Level FlightAware Approximate
Fri 10:08:00 AM -3.6951 110.0696 311° West  Level FlightAware Approximate
Fri 10:09:00 AM -3.6126 109.9735 311° West  Level FlightAware Approximate
Fri 10:10:00 AM -3.5300 109.8774 311° West  Level FlightAware Approximate
Fri 10:11:00 AM -3.4474 109.7813 311° West  Level FlightAware Approximate
Fri 10:12:00 AM -3.3649 109.6852 311° West  Level FlightAware Approximate
Fri 10:13:00 AM -3.2823 109.5892 311° West  Level FlightAware Approximate
Fri 10:14:00 AM -3.1997 109.4931 311° West  Level FlightAware Approximate
Fri 10:15:00 AM -3.1171 109.3971 311° West  Level FlightAware Approximate
Fri 10:16:00 AM -3.0345 109.3011 311° West  Level FlightAware Approximate
Fri 10:17:00 AM -2.9519 109.2051 311° West  Level FlightAware Approximate
Fri 10:18:00 AM -2.8698 109.1086 310° West  Level FlightAware Approximate
Fri 10:19:00 AM -2.7893 109.0108 310° West  Level FlightAware Approximate
Fri 10:20:00 AM -2.7088 108.9131 310° West  Level FlightAware Approximate
Fri 10:21:00 AM -2.6283 108.8154 310° West  Level FlightAware Approximate
Fri 10:22:00 AM -2.5478 108.7176 310° West  Level FlightAware Approximate
Fri 10:23:00 AM -2.4672 108.6199 310° West  Level FlightAware Approximate
Fri 10:24:00 AM -2.3867 108.5222 310° West  Level FlightAware Approximate
Fri 10:25:00 AM -2.3061 108.4245 310° West  Level FlightAware Approximate
Fri 10:26:00 AM -2.2256 108.3269 310° West  Level FlightAware Approximate
Fri 10:27:00 AM -2.1450 108.2292 310° West  Level FlightAware Approximate
Fri 10:28:00 AM -2.0644 108.1315 310° West  Level FlightAware Approximate
Fri 10:29:00 AM -1.9838 108.0339 310° West  Level FlightAware Approximate
Fri 10:30:00 AM -1.9033 107.9363 310° West  Level FlightAware Approximate
Fri 10:31:00 AM -1.8227 107.8386 310° West  Level FlightAware Approximate
Fri 10:32:00 AM -1.7421 107.7410 310° West  Level FlightAware Approximate
Fri 10:33:00 AM -1.6615 107.6434 310° West  Level FlightAware Approximate
Fri 10:34:00 AM -1.5809 107.5458 310° West  Level FlightAware Approximate
Fri 10:35:00 AM -1.5002 107.4482 310° West  Level FlightAware Approximate
Fri 10:36:00 AM -1.4196 107.3506 310° West  Level FlightAware Approximate
Fri 10:37:00 AM -1.3390 107.2530 310° West  Level FlightAware Approximate
Fri 10:38:00 AM -1.2584 107.1555 310° West  Level FlightAware Approximate
Fri 10:39:00 AM -1.1778 107.0579 310° West  Level FlightAware Approximate
Fri 10:40:00 AM -1.0971 106.9603 310° West  Level FlightAware Approximate
Fri 10:41:00 AM -1.0165 106.8628 310° West  Level FlightAware Approximate
Fri 10:42:00 AM -0.9359 106.7652 310° West  Level FlightAware Approximate
Fri 10:43:00 AM -0.8552 106.6677 310° West  Level FlightAware Approximate
Fri 10:44:00 AM -0.7746 106.5701 310° West  Level FlightAware Approximate
Fri 10:45:00 AM -0.6939 106.4726 310° West  Level FlightAware Approximate
Fri 10:46:00 AM -0.6133 106.3751 310° West  Level FlightAware Approximate
Fri 10:47:00 AM -0.5326 106.2775 310° West  Level FlightAware Approximate
Fri 10:48:00 AM -0.4520 106.1800 310° West  Level FlightAware Approximate
Fri 10:49:00 AM -0.3713 106.0825 310° West  Level FlightAware Approximate
Fri 10:50:00 AM -0.2907 105.9849 310° West  Level FlightAware Approximate
Fri 10:51:00 AM -0.2101 105.8874 310° West  Level FlightAware Approximate
Fri 10:52:00 AM -0.1294 105.7899 310° West  Level FlightAware Approximate
Fri 10:53:00 AM -0.0487 105.6924 310° West  Level FlightAware Approximate
Fri 10:54:00 AM 0.0319 105.5949 310° West  Level FlightAware Approximate
Fri 10:55:00 AM 0.1125 105.4973 310° West  Level FlightAware Approximate
Fri 10:56:00 AM 0.1932 105.3998 310° West  Level FlightAware Approximate
Fri 10:57:00 AM 0.2738 105.3023 310° West  Level FlightAware Approximate
Fri 10:58:00 AM 0.3545 105.2048 310° West  Level FlightAware Approximate
Fri 10:59:00 AM 0.4351 105.1072 310° West  Level FlightAware Approximate
Fri 11:00:00 AM 0.5158 105.0097 310° West  Level FlightAware Approximate
Fri 11:01:00 AM 0.5964 104.9122 310° West  Level FlightAware Approximate
Fri 11:02:00 AM 0.6771 104.8146 310° West  Level FlightAware Approximate
Fri 11:03:00 AM 0.7577 104.7171 310° West  Level FlightAware Approximate
Fri 11:04:00 AM 0.8384 104.6196 310° West  Level FlightAware Approximate
Fri 11:05:00 AM 0.9190 104.5220 310° West  Level FlightAware Approximate
Fri 11:06:00 AM 0.9997 104.4245 310° West  Level FlightAware Approximate
Fri 11:07:00 AM 1.0803 104.3269 310° West  Level FlightAware Approximate
Fri 11:08:00 AM 1.1609 104.2293 310° West  Level FlightAware Approximate
Fri 11:09:00 AM 1.2415 104.1318 310° West  Level FlightAware Approximate
Fri 11:10:00 AM 1.3222 104.0342 310° West  Level FlightAware Approximate
Fri 11:11:00 AM 1.3592 103.9893 310° West  Level FlightAware Approximate
Fri 11:12:00 AM 1.3557 103.9875 310° West  Level Estimated
Fri 11:13:00 AM 1.3592 103.9893 310° West  Level FlightAware Approximate
Fri 11:14:00 AM 1.3557 103.9875 310° West  Level Estimated
Fri 11:15:00 AM 1.3592 103.9893 310° West  Level FlightAware Approximate
Fri 11:16:00 AM 1.3557 103.9875 310° West  Level Estimated
Fri 11:17:00 AM 1.3592 103.9893 310° West  Level FlightAware Approximate

Login

Don't have an account? Register now (free) for customized features, flight alerts, and more!